NWS113 UWGG-UWWW
Flight info
| Callsign | NWS113 |
|---|---|
| Flight time | 0h 49m |
| Altitude | 31000 |
| Route | OKSUD T778 RUBEK |
| Aircraft | B738/M-SDE2E3FGHIRWXY/LB1 |
Departure
| Time | 2026-04-25 15:58 |
|---|---|
| Airport | Nizhny Novgorod / Strigino International Airport (UWGG) |
Arrival
| Time | 2026-04-25 16:48 |
|---|---|
| Airport | Kurumoch International Airport (UWWW) |
| Time | Latitude | Longitude | Altitude | Speed | Heading |
|---|---|---|---|---|---|
| 2026-04-25 15:27 | 56.22171 | 43.78821 | 249 ft | 0 kts | 147° |
| 2026-04-25 15:52 | 56.22164 | 43.78842 | 249 ft | 5 kts | 94° |
| 2026-04-25 15:52 | 56.22186 | 43.78886 | 250 ft | 5 kts | 16° |
| 2026-04-25 15:52 | 56.22242 | 43.78909 | 251 ft | 12 kts | 12° |
| 2026-04-25 15:53 | 56.22360 | 43.78953 | 249 ft | 22 kts | 11° |
| 2026-04-25 15:53 | 56.22464 | 43.78891 | 249 ft | 15 kts | 324° |
| 2026-04-25 15:53 | 56.22592 | 43.78892 | 249 ft | 22 kts | 13° |
| 2026-04-25 15:53 | 56.22758 | 43.78949 | 249 ft | 26 kts | 10° |
| 2026-04-25 15:54 | 56.22952 | 43.79023 | 250 ft | 30 kts | 10° |
| 2026-04-25 15:54 | 56.23176 | 43.79099 | 251 ft | 35 kts | 11° |
| 2026-04-25 15:54 | 56.23296 | 43.79145 | 252 ft | 10 kts | 12° |
| 2026-04-25 15:54 | 56.23362 | 43.79171 | 253 ft | 9 kts | 13° |
| 2026-04-25 15:55 | 56.23423 | 43.79195 | 253 ft | 8 kts | 12° |
| 2026-04-25 15:55 | 56.23481 | 43.79216 | 253 ft | 9 kts | 12° |
| 2026-04-25 15:55 | 56.23569 | 43.79230 | 252 ft | 17 kts | 2° |
| 2026-04-25 15:55 | 56.23728 | 43.79241 | 250 ft | 27 kts | 2° |
| 2026-04-25 15:56 | 56.23936 | 43.79255 | 249 ft | 28 kts | 2° |
| 2026-04-25 15:56 | 56.24055 | 43.79234 | 249 ft | 12 kts | 326° |
| 2026-04-25 15:56 | 56.24106 | 43.79109 | 247 ft | 13 kts | 300° |
| 2026-04-25 15:56 | 56.24101 | 43.78988 | 246 ft | 10 kts | 200° |
| 2026-04-25 15:57 | 56.24071 | 43.78975 | 246 ft | 0 kts | 192° |
| 2026-04-25 15:57 | 56.24029 | 43.78959 | 246 ft | 29 kts | 192° |
| 2026-04-25 15:58 | 56.23569 | 43.78790 | 246 ft | 102 kts | 194° |
| 2026-04-25 15:58 | 56.22663 | 43.78458 | 247 ft | 161 kts | 193° |
| 2026-04-25 15:58 | 56.21491 | 43.78046 | 760 ft | 171 kts | 194° |
| 2026-04-25 15:58 | 56.20384 | 43.77591 | 1488 ft | 168 kts | 198° |
| 2026-04-25 15:59 | 56.19134 | 43.77300 | 1718 ft | 196 kts | 172° |
| 2026-04-25 15:59 | 56.17931 | 43.78540 | 2095 ft | 217 kts | 133° |
| 2026-04-25 15:59 | 56.16999 | 43.80754 | 2668 ft | 226 kts | 127° |
| 2026-04-25 15:59 | 56.15985 | 43.83023 | 3000 ft | 248 kts | 133° |
| 2026-04-25 16:00 | 56.14766 | 43.85323 | 3575 ft | 258 kts | 135° |
| 2026-04-25 16:00 | 56.14339 | 43.86092 | 3746 ft | 263 kts | 135° |
| 2026-04-25 16:00 | 56.12151 | 43.90017 | 4979 ft | 268 kts | 136° |
| 2026-04-25 16:00 | 56.10784 | 43.92406 | 5318 ft | 288 kts | 136° |
| 2026-04-25 16:01 | 56.09375 | 43.94906 | 6305 ft | 281 kts | 136° |
| 2026-04-25 16:01 | 56.07999 | 43.97422 | 6984 ft | 288 kts | 135° |
| 2026-04-25 16:01 | 56.06608 | 43.99962 | 7700 ft | 291 kts | 136° |
| 2026-04-25 16:01 | 56.05165 | 44.02550 | 8370 ft | 296 kts | 136° |
| 2026-04-25 16:02 | 56.03720 | 44.05127 | 9082 ft | 299 kts | 136° |
| 2026-04-25 16:02 | 56.02237 | 44.07772 | 9775 ft | 303 kts | 136° |
| 2026-04-25 16:02 | 56.00736 | 44.10451 | 10219 ft | 316 kts | 136° |
| 2026-04-25 16:02 | 55.99138 | 44.13306 | 10606 ft | 331 kts | 135° |
| 2026-04-25 16:03 | 55.97491 | 44.16249 | 10944 ft | 346 kts | 135° |
| 2026-04-25 16:03 | 55.95737 | 44.19380 | 11274 ft | 362 kts | 135° |
| 2026-04-25 16:03 | 55.93942 | 44.22584 | 11670 ft | 376 kts | 135° |
| 2026-04-25 16:03 | 55.92077 | 44.25912 | 12319 ft | 382 kts | 135° |
| 2026-04-25 16:04 | 55.90209 | 44.29240 | 12953 ft | 387 kts | 135° |
| 2026-04-25 16:04 | 55.88282 | 44.32667 | 13632 ft | 392 kts | 135° |
| 2026-04-25 16:04 | 55.86366 | 44.36068 | 14316 ft | 397 kts | 135° |
| 2026-04-25 16:04 | 55.84398 | 44.39558 | 15006 ft | 401 kts | 135° |
| 2026-04-25 16:05 | 55.82434 | 44.43035 | 15659 ft | 407 kts | 135° |
| 2026-04-25 16:05 | 55.80437 | 44.46564 | 16317 ft | 411 kts | 135° |
| 2026-04-25 16:05 | 55.76321 | 44.53823 | 17554 ft | 421 kts | 135° |
| 2026-04-25 16:06 | 55.74255 | 44.57459 | 18138 ft | 426 kts | 135° |
| 2026-04-25 16:06 | 55.72131 | 44.61190 | 18731 ft | 431 kts | 135° |
| 2026-04-25 16:06 | 55.70015 | 44.64904 | 19302 ft | 436 kts | 135° |
| 2026-04-25 16:06 | 55.67846 | 44.68713 | 19871 ft | 440 kts | 136° |
| 2026-04-25 16:07 | 55.65689 | 44.72498 | 20417 ft | 444 kts | 136° |
| 2026-04-25 16:07 | 55.64216 | 44.75077 | 20783 ft | 447 kts | 136° |
| 2026-04-25 16:07 | 55.61280 | 44.80211 | 21476 ft | 452 kts | 136° |
| 2026-04-25 16:07 | 55.59029 | 44.84140 | 21982 ft | 457 kts | 136° |
| 2026-04-25 16:08 | 55.56786 | 44.88044 | 22480 ft | 460 kts | 136° |
| 2026-04-25 16:08 | 55.54458 | 44.91967 | 22972 ft | 464 kts | 137° |
| 2026-04-25 16:08 | 55.52071 | 44.95846 | 23430 ft | 468 kts | 138° |
| 2026-04-25 16:08 | 55.49680 | 44.99665 | 23880 ft | 471 kts | 138° |
| 2026-04-25 16:09 | 55.47229 | 45.03563 | 24377 ft | 474 kts | 138° |
| 2026-04-25 16:09 | 55.44804 | 45.07423 | 24845 ft | 478 kts | 138° |
| 2026-04-25 16:09 | 55.42328 | 45.11375 | 25304 ft | 481 kts | 138° |
| 2026-04-25 16:09 | 55.39892 | 45.15278 | 25981 ft | 478 kts | 138° |
| 2026-04-25 16:10 | 55.37441 | 45.19217 | 26643 ft | 476 kts | 138° |
| 2026-04-25 16:10 | 55.35032 | 45.23092 | 27211 ft | 476 kts | 138° |
| 2026-04-25 16:10 | 55.32605 | 45.26997 | 27753 ft | 475 kts | 139° |
| 2026-04-25 16:10 | 55.30158 | 45.30935 | 28297 ft | 475 kts | 139° |
| 2026-04-25 16:11 | 55.27742 | 45.34821 | 28820 ft | 474 kts | 139° |
| 2026-04-25 16:11 | 55.25297 | 45.38747 | 29346 ft | 473 kts | 139° |
| 2026-04-25 16:11 | 55.22900 | 45.42592 | 29858 ft | 472 kts | 139° |
| 2026-04-25 16:11 | 55.20475 | 45.46475 | 30329 ft | 471 kts | 139° |
| 2026-04-25 16:12 | 55.18065 | 45.50326 | 30686 ft | 473 kts | 139° |
| 2026-04-25 16:12 | 55.13210 | 45.58062 | 30702 ft | 471 kts | 139° |
| 2026-04-25 16:13 | 55.08384 | 45.65729 | 30697 ft | 471 kts | 140° |
| 2026-04-25 16:13 | 55.03554 | 45.73372 | 30695 ft | 471 kts | 140° |
| 2026-04-25 16:14 | 54.98709 | 45.81014 | 30699 ft | 472 kts | 140° |
| 2026-04-25 16:14 | 54.93859 | 45.88636 | 30706 ft | 472 kts | 140° |
| 2026-04-25 16:15 | 54.88996 | 45.96257 | 30708 ft | 472 kts | 140° |
| 2026-04-25 16:15 | 54.84117 | 46.03873 | 30713 ft | 473 kts | 140° |
| 2026-04-25 16:16 | 54.79245 | 46.11455 | 30713 ft | 473 kts | 140° |
| 2026-04-25 16:16 | 54.74217 | 46.18827 | 30716 ft | 472 kts | 143° |
| 2026-04-25 16:17 | 54.69060 | 46.25864 | 30716 ft | 473 kts | 143° |
| 2026-04-25 16:17 | 54.63885 | 46.32839 | 30726 ft | 472 kts | 143° |
| 2026-04-25 16:18 | 54.58724 | 46.39819 | 30724 ft | 473 kts | 143° |
| 2026-04-25 16:18 | 54.53582 | 46.46796 | 30720 ft | 471 kts | 143° |
| 2026-04-25 16:19 | 54.48425 | 46.53796 | 30721 ft | 473 kts | 143° |
| 2026-04-25 16:19 | 54.43263 | 46.60794 | 30733 ft | 474 kts | 143° |
| 2026-04-25 16:20 | 54.35533 | 46.71240 | 30744 ft | 473 kts | 144° |
| 2026-04-25 16:21 | 54.27832 | 46.81717 | 30744 ft | 475 kts | 140° |
| 2026-04-25 16:21 | 54.23645 | 46.90335 | 30741 ft | 475 kts | 117° |
| 2026-04-25 16:22 | 54.20959 | 47.00597 | 30734 ft | 474 kts | 109° |
| 2026-04-25 16:22 | 54.18636 | 47.11039 | 30712 ft | 459 kts | 108° |
| 2026-04-25 16:22 | 54.17535 | 47.16076 | 30468 ft | 451 kts | 108° |
| 2026-04-25 16:23 | 54.16436 | 47.21062 | 30087 ft | 446 kts | 108° |
| 2026-04-25 16:23 | 54.15349 | 47.25930 | 29630 ft | 443 kts | 108° |
| 2026-04-25 16:23 | 54.14240 | 47.30832 | 29154 ft | 441 kts | 108° |
| 2026-04-25 16:23 | 54.13142 | 47.35634 | 28676 ft | 439 kts | 108° |
| 2026-04-25 16:24 | 54.12024 | 47.40475 | 28193 ft | 437 kts | 108° |
| 2026-04-25 16:24 | 54.10921 | 47.45216 | 27723 ft | 435 kts | 108° |
| 2026-04-25 16:24 | 54.09802 | 47.49998 | 27237 ft | 433 kts | 108° |
| 2026-04-25 16:24 | 54.08701 | 47.54683 | 26764 ft | 430 kts | 108° |
| 2026-04-25 16:25 | 54.07586 | 47.59407 | 26283 ft | 428 kts | 108° |
| 2026-04-25 16:25 | 54.06860 | 47.62478 | 25975 ft | 426 kts | 108° |
| 2026-04-25 16:25 | 54.05383 | 47.68718 | 25340 ft | 424 kts | 109° |
| 2026-04-25 16:25 | 54.04295 | 47.73299 | 24871 ft | 422 kts | 109° |
| 2026-04-25 16:26 | 54.03194 | 47.77919 | 24394 ft | 420 kts | 108° |
| 2026-04-25 16:26 | 54.02109 | 47.82463 | 23926 ft | 418 kts | 109° |
| 2026-04-25 16:26 | 54.01015 | 47.87037 | 23454 ft | 416 kts | 109° |
| 2026-04-25 16:26 | 53.99940 | 47.91523 | 22994 ft | 414 kts | 109° |
| 2026-04-25 16:27 | 53.98853 | 47.96057 | 22500 ft | 413 kts | 109° |
| 2026-04-25 16:27 | 53.97785 | 48.00503 | 22032 ft | 411 kts | 109° |
| 2026-04-25 16:27 | 53.96703 | 48.04997 | 21567 ft | 409 kts | 109° |
| 2026-04-25 16:27 | 53.95641 | 48.09395 | 21089 ft | 407 kts | 109° |
| 2026-04-25 16:28 | 53.94567 | 48.13835 | 20636 ft | 404 kts | 109° |
| 2026-04-25 16:28 | 53.93513 | 48.18177 | 20161 ft | 402 kts | 110° |
| 2026-04-25 16:28 | 53.92448 | 48.22556 | 19691 ft | 399 kts | 110° |
| 2026-04-25 16:28 | 53.91405 | 48.26844 | 19216 ft | 397 kts | 110° |
| 2026-04-25 16:29 | 53.90351 | 48.31168 | 18752 ft | 394 kts | 110° |
| 2026-04-25 16:29 | 53.89317 | 48.35400 | 18288 ft | 391 kts | 111° |
| 2026-04-25 16:29 | 53.88277 | 48.39647 | 17825 ft | 388 kts | 111° |
| 2026-04-25 16:29 | 53.87259 | 48.43800 | 17365 ft | 385 kts | 111° |
| 2026-04-25 16:30 | 53.86232 | 48.47976 | 16907 ft | 382 kts | 111° |
| 2026-04-25 16:30 | 53.85228 | 48.52055 | 16466 ft | 378 kts | 111° |
| 2026-04-25 16:30 | 53.84213 | 48.56168 | 16017 ft | 375 kts | 111° |
| 2026-04-25 16:30 | 53.83224 | 48.60166 | 15580 ft | 372 kts | 112° |
| 2026-04-25 16:31 | 53.82225 | 48.64194 | 15132 ft | 369 kts | 112° |
| 2026-04-25 16:31 | 53.81242 | 48.68143 | 14702 ft | 365 kts | 113° |
| 2026-04-25 16:31 | 53.80256 | 48.72100 | 14261 ft | 362 kts | 114° |
| 2026-04-25 16:31 | 53.79293 | 48.75953 | 13831 ft | 359 kts | 114° |
| 2026-04-25 16:32 | 53.78321 | 48.79839 | 13416 ft | 355 kts | 114° |
| 2026-04-25 16:32 | 53.77370 | 48.83638 | 13002 ft | 352 kts | 114° |
| 2026-04-25 16:32 | 53.76332 | 48.87352 | 12582 ft | 348 kts | 120° |
| 2026-04-25 16:32 | 53.75119 | 48.90830 | 12175 ft | 344 kts | 124° |
| 2026-04-25 16:33 | 53.73830 | 48.94205 | 11766 ft | 341 kts | 126° |
| 2026-04-25 16:33 | 53.72534 | 48.97503 | 11364 ft | 338 kts | 126° |
| 2026-04-25 16:33 | 53.71234 | 49.00810 | 10962 ft | 336 kts | 126° |
| 2026-04-25 16:33 | 53.69970 | 49.04052 | 10558 ft | 333 kts | 126° |
| 2026-04-25 16:34 | 53.68702 | 49.07325 | 10158 ft | 331 kts | 125° |
| 2026-04-25 16:34 | 53.67465 | 49.10529 | 9817 ft | 327 kts | 125° |
| 2026-04-25 16:34 | 53.66243 | 49.13701 | 9675 ft | 315 kts | 125° |
| 2026-04-25 16:34 | 53.65073 | 49.16743 | 9339 ft | 313 kts | 125° |
| 2026-04-25 16:35 | 53.63886 | 49.19822 | 8962 ft | 311 kts | 125° |
| 2026-04-25 16:35 | 53.62723 | 49.22837 | 8610 ft | 309 kts | 125° |
| 2026-04-25 16:35 | 53.61550 | 49.25873 | 8250 ft | 307 kts | 125° |
| 2026-04-25 16:35 | 53.60400 | 49.28842 | 7905 ft | 305 kts | 125° |
| 2026-04-25 16:36 | 53.59242 | 49.31833 | 7555 ft | 303 kts | 125° |
| 2026-04-25 16:36 | 53.58857 | 49.32825 | 7440 ft | 302 kts | 125° |
| 2026-04-25 16:36 | 53.56964 | 49.37702 | 6868 ft | 299 kts | 125° |
| 2026-04-25 16:36 | 53.55853 | 49.40554 | 6743 ft | 288 kts | 125° |
| 2026-04-25 16:37 | 53.54775 | 49.43335 | 6978 ft | 283 kts | 125° |
| 2026-04-25 16:37 | 53.53682 | 49.46140 | 6777 ft | 289 kts | 124° |
| 2026-04-25 16:37 | 53.52594 | 49.48929 | 6755 ft | 281 kts | 124° |
| 2026-04-25 16:37 | 53.51526 | 49.51669 | 6752 ft | 285 kts | 125° |
| 2026-04-25 16:38 | 53.50436 | 49.54462 | 6745 ft | 284 kts | 124° |
| 2026-04-25 16:38 | 53.49363 | 49.57206 | 6750 ft | 284 kts | 125° |
| 2026-04-25 16:38 | 53.48275 | 49.59988 | 6749 ft | 283 kts | 124° |
| 2026-04-25 16:38 | 53.47205 | 49.62734 | 6750 ft | 284 kts | 124° |
| 2026-04-25 16:39 | 53.46117 | 49.65525 | 6747 ft | 284 kts | 125° |
| 2026-04-25 16:39 | 53.45047 | 49.68270 | 6745 ft | 284 kts | 125° |
| 2026-04-25 16:39 | 53.43963 | 49.71050 | 6743 ft | 283 kts | 125° |
| 2026-04-25 16:39 | 53.42895 | 49.73782 | 6742 ft | 283 kts | 125° |
| 2026-04-25 16:40 | 53.41808 | 49.76550 | 6746 ft | 284 kts | 125° |
| 2026-04-25 16:40 | 53.40734 | 49.79277 | 6745 ft | 283 kts | 125° |
| 2026-04-25 16:40 | 53.39656 | 49.82010 | 6596 ft | 278 kts | 126° |
| 2026-04-25 16:40 | 53.38607 | 49.84662 | 6319 ft | 275 kts | 126° |
| 2026-04-25 16:41 | 53.37544 | 49.87347 | 6002 ft | 278 kts | 125° |
| 2026-04-25 16:41 | 53.36824 | 49.89153 | 5801 ft | 279 kts | 126° |
| 2026-04-25 16:41 | 53.35042 | 49.95998 | 5054 ft | 277 kts | 102° |
| 2026-04-25 16:42 | 53.34680 | 49.99120 | 4744 ft | 276 kts | 100° |
| 2026-04-25 16:42 | 53.34324 | 50.02276 | 4420 ft | 275 kts | 101° |
| 2026-04-25 16:42 | 53.33946 | 50.05343 | 4225 ft | 268 kts | 102° |
| 2026-04-25 16:42 | 53.33550 | 50.08340 | 4153 ft | 257 kts | 103° |
| 2026-04-25 16:43 | 53.33173 | 50.11171 | 4085 ft | 247 kts | 100° |
| 2026-04-25 16:43 | 53.33036 | 50.13985 | 4000 ft | 243 kts | 82° |
| 2026-04-25 16:43 | 53.33465 | 50.16736 | 3713 ft | 244 kts | 65° |
| 2026-04-25 16:43 | 53.34112 | 50.19306 | 3473 ft | 240 kts | 64° |
| 2026-04-25 16:44 | 53.34797 | 50.21847 | 3226 ft | 236 kts | 58° |
| 2026-04-25 16:44 | 53.35706 | 50.24031 | 3013 ft | 225 kts | 38° |
| 2026-04-25 16:44 | 53.37034 | 50.25131 | 2748 ft | 208 kts | 1° |
| 2026-04-25 16:44 | 53.38399 | 50.24877 | 2508 ft | 193 kts | 335° |
| 2026-04-25 16:45 | 53.39606 | 50.24096 | 2430 ft | 179 kts | 334° |
| 2026-04-25 16:45 | 53.40724 | 50.23455 | 2176 ft | 166 kts | 335° |
| 2026-04-25 16:45 | 53.41784 | 50.22855 | 1970 ft | 154 kts | 333° |
| 2026-04-25 16:45 | 53.42780 | 50.22241 | 1841 ft | 150 kts | 333° |
| 2026-04-25 16:46 | 53.43772 | 50.21652 | 1610 ft | 153 kts | 335° |
| 2026-04-25 16:46 | 53.44767 | 50.21071 | 1411 ft | 153 kts | 335° |
| 2026-04-25 16:46 | 53.45781 | 50.20456 | 1213 ft | 155 kts | 336° |
| 2026-04-25 16:46 | 53.46120 | 50.20255 | 1152 ft | 155 kts | 336° |
| 2026-04-25 16:47 | 53.47816 | 50.19243 | 814 ft | 157 kts | 336° |
| 2026-04-25 16:47 | 53.48852 | 50.18636 | 622 ft | 156 kts | 337° |
| 2026-04-25 16:47 | 53.49844 | 50.18045 | 491 ft | 141 kts | 346° |
| 2026-04-25 16:47 | 53.50537 | 50.17634 | 491 ft | 78 kts | 331° |
| 2026-04-25 16:48 | 53.50982 | 50.17371 | 491 ft | 58 kts | 336° |
| 2026-04-25 16:48 | 53.51307 | 50.17175 | 491 ft | 29 kts | 340° |
| 2026-04-25 16:48 | 53.51436 | 50.17079 | 491 ft | 8 kts | 291° |
| 2026-04-25 16:48 | 53.51412 | 50.16980 | 491 ft | 16 kts | 249° |
| 2026-04-25 16:49 | 53.51339 | 50.16721 | 491 ft | 29 kts | 241° |
| 2026-04-25 16:49 | 53.51277 | 50.16526 | 491 ft | 17 kts | 245° |
| 2026-04-25 16:49 | 53.51227 | 50.16352 | 491 ft | 16 kts | 245° |
| 2026-04-25 16:49 | 53.51176 | 50.16185 | 491 ft | 15 kts | 241° |
| 2026-04-25 16:50 | 53.51129 | 50.16046 | 490 ft | 7 kts | 239° |
| 2026-04-25 16:50 | 53.51102 | 50.15973 | 490 ft | 7 kts | 238° |
| 2026-04-25 16:50 | 53.51077 | 50.15902 | 491 ft | 6 kts | 242° |
| 2026-04-25 16:50 | 53.51056 | 50.15832 | 490 ft | 6 kts | 243° |
| 2026-04-25 16:51 | 53.51049 | 50.15808 | 490 ft | 2 kts | 243° |
| 2026-04-25 16:51 | 53.51037 | 50.15768 | 490 ft | 4 kts | 246° |
| 2026-04-25 16:51 | 53.51038 | 50.15727 | 490 ft | 2 kts | 296° |
| 2026-04-25 16:51 | 53.51047 | 50.15712 | 490 ft | 2 kts | 324° |
| 2026-04-25 16:52 | 53.51060 | 50.15699 | 490 ft | 3 kts | 329° |
| 2026-04-25 16:52 | 53.51067 | 50.15692 | 490 ft | 1 kts | 331° |
| 2026-04-25 16:52 | 53.51075 | 50.15685 | 490 ft | 0 kts | 331° |
| 2026-04-25 16:52 | 53.51077 | 50.15683 | 490 ft | 0 kts | 331° |
| 2026-04-25 16:53 | 53.51085 | 50.15676 | 490 ft | 1 kts | 331° |
| 2026-04-25 16:53 | 53.51089 | 50.15672 | 490 ft | 0 kts | 331° |